sensor_id;sensor_type;location;lat;lon;timestamp;pressure;altitude;pressure_sealevel;temperature;humidity
7824;BME280;3957;48.61947800;9.05303100;2022-08-19T00:00:39;95718.06;;;18.10;97.43
7824;BME280;3957;48.61947800;9.05303100;2022-08-19T00:02:00;95716.41;;;18.09;97.87
7824;BME280;3957;48.61947800;9.05303100;2022-08-19T00:03:20;95714.81;;;18.08;97.68
7824;BME280;3957;48.61947800;9.05303100;2022-08-19T00:04:41;95710.47;;;18.07;96.96
7824;BME280;3957;48.61947800;9.05303100;2022-08-19T00:06:02;95711.56;;;18.11;97.00
7824;BME280;3957;48.61947800;9.05303100;2022-08-19T00:07:23;95714.81;;;18.13;96.97
7824;BME280;3957;48.61947800;9.05303100;2022-08-19T00:08:44;95720.50;;;18.11;96.72
7824;BME280;3957;48.61947800;9.05303100;2022-08-19T00:10:06;95724.53;;;18.09;96.79
7824;BME280;3957;48.61947800;9.05303100;2022-08-19T00:11:29;95727.25;;;18.09;96.76
7824;BME280;3957;48.61947800;9.05303100;2022-08-19T00:12:50;95722.34;;;18.06;96.83
7824;BME280;3957;48.61947800;9.05303100;2022-08-19T00:14:13;95723.16;;;18.06;96.91
7824;BME280;3957;48.61947800;9.05303100;2022-08-19T00:15:34;95720.47;;;18.06;97.27
7824;BME280;3957;48.61947800;9.05303100;2022-08-19T00:16:54;95718.00;;;18.05;97.61
7824;BME280;3957;48.61947800;9.05303100;2022-08-19T00:18:18;95719.91;;;18.04;97.79
7824;BME280;3957;48.61947800;9.05303100;2022-08-19T00:19:39;95719.91;;;18.04;97.53
7824;BME280;3957;48.61947800;9.05303100;2022-08-19T00:21:01;95719.59;;;18.00;97.85
7824;BME280;3957;48.61947800;9.05303100;2022-08-19T00:22:22;95711.75;;;17.99;98.06
7824;BME280;3957;48.61947800;9.05303100;2022-08-19T00:23:43;95713.41;;;18.00;98.27
7824;BME280;3957;48.61947800;9.05303100;2022-08-19T00:25:05;95710.13;;;17.98;98.76
7824;BME280;3957;48.61947800;9.05303100;2022-08-19T00:26:27;95717.69;;;17.96;99.17
7824;BME280;3957;48.61947800;9.05303100;2022-08-19T00:27:48;95705.50;;;17.93;99.06
7824;BME280;3957;48.61947800;9.05303100;2022-08-19T00:29:11;95702.25;;;17.91;100.00
7824;BME280;3957;48.61947800;9.05303100;2022-08-19T00:30:32;95700.84;;;17.89;100.00
7824;BME280;3957;48.61947800;9.05303100;2022-08-19T00:31:54;95695.63;;;17.82;100.00
7824;BME280;3957;48.61947800;9.05303100;2022-08-19T00:33:15;95691.50;;;17.74;100.00
7824;BME280;3957;48.61947800;9.05303100;2022-08-19T00:34:37;95694.69;;;17.66;100.00
7824;BME280;3957;48.61947800;9.05303100;2022-08-19T00:36:03;95692.19;;;17.54;100.00
7824;BME280;3957;48.61947800;9.05303100;2022-08-19T00:37:24;95692.59;;;17.41;100.00
7824;BME280;3957;48.61947800;9.05303100;2022-08-19T00:38:47;95689.03;;;17.35;100.00
7824;BME280;3957;48.61947800;9.05303100;2022-08-19T00:40:08;95691.88;;;17.23;100.00
7824;BME280;3957;48.61947800;9.05303100;2022-08-19T00:41:29;95682.03;;;17.12;100.00
7824;BME280;3957;48.61947800;9.05303100;2022-08-19T00:42:50;95685.22;;;17.04;100.00
7824;BME280;3957;48.61947800;9.05303100;2022-08-19T00:44:21;95681.03;;;16.91;100.00
7824;BME280;3957;48.61947800;9.05303100;2022-08-19T00:45:42;95692.00;;;16.84;100.00
7824;BME280;3957;48.61947800;9.05303100;2022-08-19T00:47:04;95701.13;;;16.78;100.00
7824;BME280;3957;48.61947800;9.05303100;2022-08-19T00:48:25;95696.72;;;16.72;100.00
7824;BME280;3957;48.61947800;9.05303100;2022-08-19T00:49:53;95700.75;;;16.69;100.00
7824;BME280;3957;48.61947800;9.05303100;2022-08-19T00:51:14;95701.50;;;16.64;100.00
7824;BME280;3957;48.61947800;9.05303100;2022-08-19T00:52:39;95701.75;;;16.63;100.00
7824;BME280;3957;48.61947800;9.05303100;2022-08-19T00:54:02;95705.28;;;16.63;100.00
7824;BME280;3957;48.61947800;9.05303100;2022-08-19T00:55:25;95709.88;;;16.63;100.00
7824;BME280;3957;48.61947800;9.05303100;2022-08-19T00:56:49;95701.19;;;16.61;100.00
7824;BME280;3957;48.61947800;9.05303100;2022-08-19T00:58:14;95711.69;;;16.57;100.00
7824;BME280;3957;48.61947800;9.05303100;2022-08-19T00:59:38;95704.91;;;16.55;100.00
7824;BME280;3957;48.61947800;9.05303100;2022-08-19T01:01:02;95701.13;;;16.56;100.00
7824;BME280;3957;48.61947800;9.05303100;2022-08-19T01:02:23;95699.19;;;16.51;100.00
7824;BME280;3957;48.61947800;9.05303100;2022-08-19T01:03:44;95708.34;;;16.50;100.00
7824;BME280;3957;48.61947800;9.05303100;2022-08-19T01:05:09;95704.84;;;16.49;100.00
7824;BME280;3957;48.61947800;9.05303100;2022-08-19T01:06:32;95703.19;;;16.48;100.00
7824;BME280;3957;48.61947800;9.05303100;2022-08-19T01:07:56;95703.19;;;16.48;100.00
7824;BME280;3957;48.61947800;9.05303100;2022-08-19T01:09:17;95702.38;;;16.48;100.00
7824;BME280;3957;48.61947800;9.05303100;2022-08-19T01:10:52;95698.88;;;16.47;100.00
7824;BME280;3957;48.61947800;9.05303100;2022-08-19T01:12:15;95691.84;;;16.46;100.00
7824;BME280;3957;48.61947800;9.05303100;2022-08-19T01:13:37;95689.94;;;16.47;100.00
7824;BME280;3957;48.61947800;9.05303100;2022-08-19T01:14:58;95693.97;;;16.44;100.00
7824;BME280;3957;48.61947800;9.05303100;2022-08-19T01:16:22;95688.56;;;16.44;100.00
7824;BME280;3957;48.61947800;9.05303100;2022-08-19T01:17:45;95688.81;;;16.43;100.00
7824;BME280;3957;48.61947800;9.05303100;2022-08-19T01:19:26;95686.38;;;16.41;100.00
7824;BME280;3957;48.61947800;9.05303100;2022-08-19T01:20:48;95691.75;;;16.41;100.00
7824;BME280;3957;48.61947800;9.05303100;2022-08-19T01:23:37;95685.81;;;16.39;100.00
7824;BME280;3957;48.61947800;9.05303100;2022-08-19T01:25:04;95686.28;;;16.36;100.00
7824;BME280;3957;48.61947800;9.05303100;2022-08-19T01:26:26;95688.50;;;16.39;100.00
7824;BME280;3957;48.61947800;9.05303100;2022-08-19T01:27:49;95683.13;;;16.39;100.00
7824;BME280;3957;48.61947800;9.05303100;2022-08-19T01:29:11;95691.44;;;16.38;100.00
7824;BME280;3957;48.61947800;9.05303100;2022-08-19T01:30:34;95689.31;;;16.40;100.00
7824;BME280;3957;48.61947800;9.05303100;2022-08-19T01:31:55;95687.94;;;16.37;100.00
7824;BME280;3957;48.61947800;9.05303100;2022-08-19T01:33:16;95680.34;;;16.34;100.00
7824;BME280;3957;48.61947800;9.05303100;2022-08-19T01:34:38;95680.34;;;16.34;100.00
7824;BME280;3957;48.61947800;9.05303100;2022-08-19T01:36:12;95684.44;;;16.37;100.00
7824;BME280;3957;48.61947800;9.05303100;2022-08-19T01:37:54;95688.19;;;16.36;100.00
7824;BME280;3957;48.61947800;9.05303100;2022-08-19T01:39:19;95692.53;;;16.37;100.00
7824;BME280;3957;48.61947800;9.05303100;2022-08-19T01:40:40;95687.69;;;16.39;100.00
7824;BME280;3957;48.61947800;9.05303100;2022-08-19T01:42:02;95692.28;;;16.38;100.00
7824;BME280;3957;48.61947800;9.05303100;2022-08-19T01:43:24;95687.16;;;16.42;100.00
7824;BME280;3957;48.61947800;9.05303100;2022-08-19T01:44:45;95692.34;;;16.43;100.00
7824;BME280;3957;48.61947800;9.05303100;2022-08-19T01:46:06;95689.66;;;16.43;100.00
7824;BME280;3957;48.61947800;9.05303100;2022-08-19T01:47:27;95678.59;;;16.45;100.00
7824;BME280;3957;48.61947800;9.05303100;2022-08-19T01:48:48;95680.97;;;16.41;100.00
7824;BME280;3957;48.61947800;9.05303100;2022-08-19T01:50:10;95676.88;;;16.39;100.00
7824;BME280;3957;48.61947800;9.05303100;2022-08-19T01:51:32;95679.56;;;16.39;100.00
7824;BME280;3957;48.61947800;9.05303100;2022-08-19T01:52:53;95684.97;;;16.39;100.00
7824;BME280;3957;48.61947800;9.05303100;2022-08-19T01:54:15;95685.50;;;16.36;100.00
7824;BME280;3957;48.61947800;9.05303100;2022-08-19T01:55:40;95686.78;;;16.33;100.00
7824;BME280;3957;48.61947800;9.05303100;2022-08-19T01:57:05;95691.66;;;16.31;100.00
7824;BME280;3957;48.61947800;9.05303100;2022-08-19T01:58:31;95687.56;;;16.28;100.00
7824;BME280;3957;48.61947800;9.05303100;2022-08-19T01:59:52;95696.72;;;16.27;100.00
7824;BME280;3957;48.61947800;9.05303100;2022-08-19T02:01:14;95699.66;;;16.26;100.00
7824;BME280;3957;48.61947800;9.05303100;2022-08-19T02:02:35;95696.97;;;16.26;100.00
7824;BME280;3957;48.61947800;9.05303100;2022-08-19T02:03:55;95697.22;;;16.24;100.00
7824;BME280;3957;48.61947800;9.05303100;2022-08-19T02:05:16;95697.22;;;16.24;100.00
7824;BME280;3957;48.61947800;9.05303100;2022-08-19T02:06:38;95701.53;;;16.25;100.00
7824;BME280;3957;48.61947800;9.05303100;2022-08-19T02:08:00;95698.03;;;16.25;100.00
7824;BME280;3957;48.61947800;9.05303100;2022-08-19T02:09:21;95696.97;;;16.26;100.00
7824;BME280;3957;48.61947800;9.05303100;2022-08-19T02:10:43;95681.03;;;16.24;100.00
7824;BME280;3957;48.61947800;9.05303100;2022-08-19T02:12:06;95686.16;;;16.26;100.00
7824;BME280;3957;48.61947800;9.05303100;2022-08-19T02:13:28;95680.78;;;16.26;100.00
7824;BME280;3957;48.61947800;9.05303100;2022-08-19T02:14:49;95682.41;;;16.27;100.00
7824;BME280;3957;48.61947800;9.05303100;2022-08-19T02:16:10;95681.56;;;16.26;100.00
7824;BME280;3957;48.61947800;9.05303100;2022-08-19T02:17:31;95682.16;;;16.28;100.00
7824;BME280;3957;48.61947800;9.05303100;2022-08-19T02:18:52;95687.56;;;16.28;100.00
7824;BME280;3957;48.61947800;9.05303100;2022-08-19T02:20:14;95685.66;;;16.29;100.00
7824;BME280;3957;48.61947800;9.05303100;2022-08-19T02:21:34;95685.66;;;16.29;100.00
7824;BME280;3957;48.61947800;9.05303100;2022-08-19T02:22:55;95689.41;;;16.28;100.00
7824;BME280;3957;48.61947800;9.05303100;2022-08-19T02:24:16;95685.91;;;16.27;100.00
7824;BME280;3957;48.61947800;9.05303100;2022-08-19T02:25:38;95682.41;;;16.27;100.00
7824;BME280;3957;48.61947800;9.05303100;2022-08-19T02:26:58;95683.47;;;16.26;100.00
7824;BME280;3957;48.61947800;9.05303100;2022-08-19T02:28:19;95688.88;;;16.26;100.00
7824;BME280;3957;48.61947800;9.05303100;2022-08-19T02:29:40;95685.66;;;16.29;100.00
7824;BME280;3957;48.61947800;9.05303100;2022-08-19T02:31:02;95681.91;;;16.30;100.00
7824;BME280;3957;48.61947800;9.05303100;2022-08-19T02:32:23;95673.81;;;16.30;100.00
7824;BME280;3957;48.61947800;9.05303100;2022-08-19T02:33:44;95674.88;;;16.29;100.00
7824;BME280;3957;48.61947800;9.05303100;2022-08-19T02:35:06;95677.56;;;16.29;100.00
7824;BME280;3957;48.61947800;9.05303100;2022-08-19T02:36:27;95670.84;;;16.31;100.00
7824;BME280;3957;48.61947800;9.05303100;2022-08-19T02:37:48;95671.66;;;16.32;100.00
7824;BME280;3957;48.61947800;9.05303100;2022-08-19T02:39:27;95665.78;;;16.35;100.00
7824;BME280;3957;48.61947800;9.05303100;2022-08-19T02:40:50;95664.69;;;16.36;100.00
7824;BME280;3957;48.61947800;9.05303100;2022-08-19T02:42:12;95666.06;;;16.39;100.00
7824;BME280;3957;48.61947800;9.05303100;2022-08-19T02:43:33;95672.53;;;16.38;100.00
7824;BME280;3957;48.61947800;9.05303100;2022-08-19T02:44:57;95662.00;;;16.36;100.00
7824;BME280;3957;48.61947800;9.05303100;2022-08-19T02:46:21;95664.44;;;16.38;100.00
7824;BME280;3957;48.61947800;9.05303100;2022-08-19T02:47:42;95667.47;;;16.41;100.00
7824;BME280;3957;48.61947800;9.05303100;2022-08-19T02:49:06;95663.38;;;16.39;100.00
7824;BME280;3957;48.61947800;9.05303100;2022-08-19T02:50:26;95665.81;;;16.40;100.00
7824;BME280;3957;48.61947800;9.05303100;2022-08-19T02:51:47;95666.66;;;16.41;100.00
7824;BME280;3957;48.61947800;9.05303100;2022-08-19T02:53:08;95663.13;;;16.40;100.00
7824;BME280;3957;48.61947800;9.05303100;2022-08-19T02:54:29;95666.91;;;16.39;100.00
7824;BME280;3957;48.61947800;9.05303100;2022-08-19T02:55:50;95670.41;;;16.40;100.00
7824;BME280;3957;48.61947800;9.05303100;2022-08-19T02:57:11;95674.75;;;16.41;100.00
7824;BME280;3957;48.61947800;9.05303100;2022-08-19T02:58:32;95670.16;;;16.41;100.00
7824;BME280;3957;48.61947800;9.05303100;2022-08-19T02:59:53;95678.00;;;16.43;100.00
7824;BME280;3957;48.61947800;9.05303100;2022-08-19T03:01:24;95674.00;;;16.45;100.00
7824;BME280;3957;48.61947800;9.05303100;2022-08-19T03:02:45;95670.50;;;16.45;100.00
7824;BME280;3957;48.61947800;9.05303100;2022-08-19T03:04:11;95678.34;;;16.46;100.00
7824;BME280;3957;48.61947800;9.05303100;2022-08-19T03:05:32;95680.78;;;16.48;100.00
7824;BME280;3957;48.61947800;9.05303100;2022-08-19T03:06:53;95672.69;;;16.48;100.00
7824;BME280;3957;48.61947800;9.05303100;2022-08-19T03:08:15;95678.88;;;16.48;100.00
7824;BME280;3957;48.61947800;9.05303100;2022-08-19T03:09:37;95679.97;;;16.47;100.00
7824;BME280;3957;48.61947800;9.05303100;2022-08-19T03:10:58;95685.13;;;16.49;100.00
7824;BME280;3957;48.61947800;9.05303100;2022-08-19T03:12:18;95684.88;;;16.51;100.00
7824;BME280;3957;48.61947800;9.05303100;2022-08-19T03:13:39;95684.03;;;16.50;100.00
7824;BME280;3957;48.61947800;9.05303100;2022-08-19T03:15:00;95680.53;;;16.49;100.00
7824;BME280;3957;48.61947800;9.05303100;2022-08-19T03:16:24;95684.88;;;16.51;100.00
7824;BME280;3957;48.61947800;9.05303100;2022-08-19T03:17:45;95676.25;;;16.54;100.00
7824;BME280;3957;48.61947800;9.05303100;2022-08-19T03:19:06;95676.81;;;16.56;100.00
7824;BME280;3957;48.61947800;9.05303100;2022-08-19T03:20:27;95678.69;;;16.55;100.00
7824;BME280;3957;48.61947800;9.05303100;2022-08-19T03:21:48;95666.84;;;16.56;100.00
7824;BME280;3957;48.61947800;9.05303100;2022-08-19T03:23:10;95671.19;;;16.57;100.00
7824;BME280;3957;48.61947800;9.05303100;2022-08-19T03:24:31;95662.56;;;16.60;100.00
7824;BME280;3957;48.61947800;9.05303100;2022-08-19T03:25:52;95666.59;;;16.58;100.00
7824;BME280;3957;48.61947800;9.05303100;2022-08-19T03:27:14;95666.31;;;16.59;100.00
7824;BME280;3957;48.61947800;9.05303100;2022-08-19T03:28:34;95660.66;;;16.61;100.00
7824;BME280;3957;48.61947800;9.05303100;2022-08-19T03:29:55;95668.50;;;16.62;100.00
7824;BME280;3957;48.61947800;9.05303100;2022-08-19T03:31:19;95671.78;;;16.64;100.00
7824;BME280;3957;48.61947800;9.05303100;2022-08-19T03:32:40;95671.53;;;16.66;100.00
7824;BME280;3957;48.61947800;9.05303100;2022-08-19T03:34:01;95674.25;;;16.66;100.00
7824;BME280;3957;48.61947800;9.05303100;2022-08-19T03:35:22;95670.72;;;16.65;100.00
7824;BME280;3957;48.61947800;9.05303100;2022-08-19T03:36:42;95674.25;;;16.66;100.00
7824;BME280;3957;48.61947800;9.05303100;2022-08-19T03:38:04;95671.28;;;16.67;100.00
7824;BME280;3957;48.61947800;9.05303100;2022-08-19T03:39:27;95673.47;;;16.71;100.00
7824;BME280;3957;48.61947800;9.05303100;2022-08-19T03:40:48;95678.06;;;16.70;100.00
7824;BME280;3957;48.61947800;9.05303100;2022-08-19T03:42:09;95671.03;;;16.69;100.00
7824;BME280;3957;48.61947800;9.05303100;2022-08-19T03:43:30;95673.72;;;16.69;100.00
7824;BME280;3957;48.61947800;9.05303100;2022-08-19T03:44:51;95665.06;;;16.67;100.00
7824;BME280;3957;48.61947800;9.05303100;2022-08-19T03:46:18;95664.75;;;16.63;100.00
7824;BME280;3957;48.61947800;9.05303100;2022-08-19T03:47:43;95661.78;;;16.65;100.00
7824;BME280;3957;48.61947800;9.05303100;2022-08-19T03:49:04;95662.63;;;16.65;100.00
7824;BME280;3957;48.61947800;9.05303100;2022-08-19T03:50:27;95671.78;;;16.64;100.00
7824;BME280;3957;48.61947800;9.05303100;2022-08-19T03:51:49;95670.47;;;16.67;100.00
7824;BME280;3957;48.61947800;9.05303100;2022-08-19T03:53:10;95668.84;;;16.66;100.00
7824;BME280;3957;48.61947800;9.05303100;2022-08-19T03:54:31;95677.75;;;16.66;100.00
7824;BME280;3957;48.61947800;9.05303100;2022-08-19T03:55:52;95681.53;;;16.65;100.00
7824;BME280;3957;48.61947800;9.05303100;2022-08-19T03:57:14;95686.94;;;16.65;100.00
7824;BME280;3957;48.61947800;9.05303100;2022-08-19T03:58:35;95682.34;;;16.66;100.00
7824;BME280;3957;48.61947800;9.05303100;2022-08-19T03:59:58;95699.63;;;16.65;100.00
7824;BME280;3957;48.61947800;9.05303100;2022-08-19T04:01:21;95695.84;;;16.66;100.00
7824;BME280;3957;48.61947800;9.05303100;2022-08-19T04:02:42;95698.56;;;16.66;100.00
7824;BME280;3957;48.61947800;9.05303100;2022-08-19T04:04:04;95704.75;;;16.66;100.00
7824;BME280;3957;48.61947800;9.05303100;2022-08-19T04:05:29;95699.63;;;16.65;100.00
7824;BME280;3957;48.61947800;9.05303100;2022-08-19T04:06:50;95705.00;;;16.65;100.00
7824;BME280;3957;48.61947800;9.05303100;2022-08-19T04:08:12;95693.97;;;16.66;100.00
7824;BME280;3957;48.61947800;9.05303100;2022-08-19T04:09:34;95699.09;;;16.68;100.00
7824;BME280;3957;48.61947800;9.05303100;2022-08-19T04:10:54;95688.28;;;16.68;100.00
7824;BME280;3957;48.61947800;9.05303100;2022-08-19T04:12:15;95694.28;;;16.70;100.00
7824;BME280;3957;48.61947800;9.05303100;2022-08-19T04:13:36;95692.97;;;16.73;100.00
7824;BME280;3957;48.61947800;9.05303100;2022-08-19T04:14:58;95685.38;;;16.70;100.00
7824;BME280;3957;48.61947800;9.05303100;2022-08-19T04:16:20;95686.97;;;16.71;100.00
7824;BME280;3957;48.61947800;9.05303100;2022-08-19T04:17:41;95684.53;;;16.69;100.00
7824;BME280;3957;48.61947800;9.05303100;2022-08-19T04:19:04;95686.19;;;16.70;100.00
7824;BME280;3957;48.61947800;9.05303100;2022-08-19T04:20:25;95679.13;;;16.69;100.00
7824;BME280;3957;48.61947800;9.05303100;2022-08-19T04:21:51;95678.31;;;16.69;100.00
7824;BME280;3957;48.61947800;9.05303100;2022-08-19T04:23:13;95679.66;;;16.66;100.00
7824;BME280;3957;48.61947800;9.05303100;2022-08-19T04:24:35;95685.03;;;16.66;100.00
7824;BME280;3957;48.61947800;9.05303100;2022-08-19T04:25:56;95678.31;;;16.69;100.00
7824;BME280;3957;48.61947800;9.05303100;2022-08-19T04:27:17;95676.69;;;16.67;100.00
7824;BME280;3957;48.61947800;9.05303100;2022-08-19T04:28:37;95675.88;;;16.67;100.00
7824;BME280;3957;48.61947800;9.05303100;2022-08-19T04:29:58;95672.59;;;16.65;100.00
7824;BME280;3957;48.61947800;9.05303100;2022-08-19T04:31:23;95682.09;;;16.67;100.00
7824;BME280;3957;48.61947800;9.05303100;2022-08-19T04:32:46;95674.50;;;16.64;100.00
7824;BME280;3957;48.61947800;9.05303100;2022-08-19T04:34:08;95682.84;;;16.63;100.00
7824;BME280;3957;48.61947800;9.05303100;2022-08-19T04:35:41;95683.41;;;16.65;100.00
7824;BME280;3957;48.61947800;9.05303100;2022-08-19T04:37:05;95685.31;;;16.64;100.00
7824;BME280;3957;48.61947800;9.05303100;2022-08-19T04:38:32;95686.09;;;16.65;100.00
7824;BME280;3957;48.61947800;9.05303100;2022-08-19T04:39:52;95682.34;;;16.66;100.00
7824;BME280;3957;48.61947800;9.05303100;2022-08-19T04:41:34;95693.97;;;16.66;100.00
7824;BME280;3957;48.61947800;9.05303100;2022-08-19T04:43:14;95681.03;;;16.69;100.00
7824;BME280;3957;48.61947800;9.05303100;2022-08-19T04:44:35;95698.88;;;16.70;100.00
7824;BME280;3957;48.61947800;9.05303100;2022-08-19T04:45:56;95689.13;;;16.69;100.00
7824;BME280;3957;48.61947800;9.05303100;2022-08-19T04:47:17;95688.63;;;16.72;100.00
7824;BME280;3957;48.61947800;9.05303100;2022-08-19T04:48:39;95694.28;;;16.70;100.00
7824;BME280;3957;48.61947800;9.05303100;2022-08-19T04:50:00;95682.69;;;16.75;100.00
7824;BME280;3957;48.61947800;9.05303100;2022-08-19T04:51:20;95685.66;;;16.73;100.00
7824;BME280;3957;48.61947800;9.05303100;2022-08-19T04:52:41;95693.50;;;16.75;100.00
7824;BME280;3957;48.61947800;9.05303100;2022-08-19T04:54:05;95692.13;;;16.72;100.00
7824;BME280;3957;48.61947800;9.05303100;2022-08-19T04:55:25;95693.78;;;16.73;100.00
7824;BME280;3957;48.61947800;9.05303100;2022-08-19T04:56:46;95683.53;;;16.75;100.00
7824;BME280;3957;48.61947800;9.05303100;2022-08-19T04:58:07;95685.16;;;16.76;100.00
7824;BME280;3957;48.61947800;9.05303100;2022-08-19T04:59:28;95683.03;;;16.78;100.00
7824;BME280;3957;48.61947800;9.05303100;2022-08-19T05:00:49;95689.50;;;16.77;100.00
7824;BME280;3957;48.61947800;9.05303100;2022-08-19T05:02:09;95680.88;;;16.80;100.00
7824;BME280;3957;48.61947800;9.05303100;2022-08-19T05:03:30;95688.19;;;16.80;100.00
7824;BME280;3957;48.61947800;9.05303100;2022-08-19T05:04:57;95698.22;;;16.84;100.00
7824;BME280;3957;48.61947800;9.05303100;2022-08-19T05:06:21;95693.91;;;16.83;100.00
7824;BME280;3957;48.61947800;9.05303100;2022-08-19T05:07:42;95696.91;;;16.87;100.00
7824;BME280;3957;48.61947800;9.05303100;2022-08-19T05:09:04;95706.41;;;16.90;100.00
7824;BME280;3957;48.61947800;9.05303100;2022-08-19T05:10:25;95706.66;;;16.88;100.00
7824;BME280;3957;48.61947800;9.05303100;2022-08-19T05:11:46;95716.97;;;16.91;100.00
7824;BME280;3957;48.61947800;9.05303100;2022-08-19T05:13:06;95713.47;;;16.91;100.00
7824;BME280;3957;48.61947800;9.05303100;2022-08-19T05:14:29;95718.34;;;16.94;100.00
7824;BME280;3957;48.61947800;9.05303100;2022-08-19T05:15:55;95723.75;;;16.94;100.00
7824;BME280;3957;48.61947800;9.05303100;2022-08-19T05:17:16;95728.91;;;16.95;100.00
7824;BME280;3957;48.61947800;9.05303100;2022-08-19T05:18:37;95732.44;;;16.96;100.00
7824;BME280;3957;48.61947800;9.05303100;2022-08-19T05:20:16;95738.09;;;16.94;100.00
7824;BME280;3957;48.61947800;9.05303100;2022-08-19T05:21:56;95742.41;;;16.95;100.00
7824;BME280;3957;48.61947800;9.05303100;2022-08-19T05:23:35;95754.38;;;16.99;100.00
7824;BME280;3957;48.61947800;9.05303100;2022-08-19T05:24:56;95760.59;;;17.00;100.00
7824;BME280;3957;48.61947800;9.05303100;2022-08-19T05:26:17;95757.91;;;17.00;100.00
7824;BME280;3957;48.61947800;9.05303100;2022-08-19T05:27:38;95770.03;;;16.97;100.00
7824;BME280;3957;48.61947800;9.05303100;2022-08-19T05:28:59;95781.38;;;16.99;100.00
7824;BME280;3957;48.61947800;9.05303100;2022-08-19T05:30:20;95775.19;;;16.99;100.00
7824;BME280;3957;48.61947800;9.05303100;2022-08-19T05:31:40;95774.59;;;16.97;100.00
7824;BME280;3957;48.61947800;9.05303100;2022-08-19T05:33:01;95776.75;;;16.95;100.00
7824;BME280;3957;48.61947800;9.05303100;2022-08-19T05:34:24;95783.53;;;16.97;100.00
7824;BME280;3957;48.61947800;9.05303100;2022-08-19T05:35:46;95778.41;;;16.96;100.00
7824;BME280;3957;48.61947800;9.05303100;2022-08-19T05:37:08;95781.31;;;16.94;100.00
7824;BME280;3957;48.61947800;9.05303100;2022-08-19T05:38:29;95777.25;;;16.92;100.00
7824;BME280;3957;48.61947800;9.05303100;2022-08-19T05:39:50;95788.38;;;16.95;100.00
7824;BME280;3957;48.61947800;9.05303100;2022-08-19T05:41:12;95773.22;;;16.94;100.00
7824;BME280;3957;48.61947800;9.05303100;2022-08-19T05:42:33;95778.94;;;16.98;100.00
7824;BME280;3957;48.61947800;9.05303100;2022-08-19T05:44:01;95780.34;;;17.00;100.00
7824;BME280;3957;48.61947800;9.05303100;2022-08-19T05:45:23;95780.66;;;17.04;100.00
7824;BME280;3957;48.61947800;9.05303100;2022-08-19T05:46:45;95786.34;;;17.08;100.00
7824;BME280;3957;48.61947800;9.05303100;2022-08-19T05:48:10;95780.88;;;17.03;100.00
7824;BME280;3957;48.61947800;9.05303100;2022-08-19T05:49:32;95785.47;;;17.02;100.00
7824;BME280;3957;48.61947800;9.05303100;2022-08-19T05:50:53;95784.50;;;17.08;100.00
7824;BME280;3957;48.61947800;9.05303100;2022-08-19T05:52:15;95777.19;;;17.09;100.00
7824;BME280;3957;48.61947800;9.05303100;2022-08-19T05:53:36;95778.31;;;17.13;100.00
7824;BME280;3957;48.61947800;9.05303100;2022-08-19T05:54:57;95779.19;;;17.19;100.00
7824;BME280;3957;48.61947800;9.05303100;2022-08-19T05:56:18;95776.47;;;17.19;100.00
7824;BME280;3957;48.61947800;9.05303100;2022-08-19T05:57:40;95780.75;;;17.14;100.00
7824;BME280;3957;48.61947800;9.05303100;2022-08-19T05:59:01;95782.91;;;17.12;100.00
7824;BME280;3957;48.61947800;9.05303100;2022-08-19T06:00:22;95778.59;;;17.16;100.00
7824;BME280;3957;48.61947800;9.05303100;2022-08-19T06:01:45;95777.28;;;17.19;100.00
7824;BME280;3957;48.61947800;9.05303100;2022-08-19T06:03:06;95781.88;;;17.19;100.00
7824;BME280;3957;48.61947800;9.05303100;2022-08-19T06:04:27;95776.47;;;17.19;100.00
7824;BME280;3957;48.61947800;9.05303100;2022-08-19T06:05:47;95777.59;;;17.23;100.00
7824;BME280;3957;48.61947800;9.05303100;2022-08-19T06:07:08;95778.59;;;17.16;100.00
7824;BME280;3957;48.61947800;9.05303100;2022-08-19T06:08:30;95781.88;;;17.19;100.00
7824;BME280;3957;48.61947800;9.05303100;2022-08-19T06:09:50;95778.94;;;17.20;100.00
7824;BME280;3957;48.61947800;9.05303100;2022-08-19T06:12:56;95771.69;;;17.26;100.00
7824;BME280;3957;48.61947800;9.05303100;2022-08-19T06:14:19;95766.09;;;17.32;100.00
7824;BME280;3957;48.61947800;9.05303100;2022-08-19T06:15:41;95774.72;;;17.29;100.00
7824;BME280;3957;48.61947800;9.05303100;2022-08-19T06:17:04;95774.00;;;17.39;100.00
7824;BME280;3957;48.61947800;9.05303100;2022-08-19T06:18:25;95772.97;;;17.45;100.00
7824;BME280;3957;48.61947800;9.05303100;2022-08-19T06:19:46;95768.19;;;17.53;100.00
7824;BME280;3957;48.61947800;9.05303100;2022-08-19T06:21:06;95776.06;;;17.59;100.00
7824;BME280;3957;48.61947800;9.05303100;2022-08-19T06:22:27;95777.09;;;17.53;100.00
7824;BME280;3957;48.61947800;9.05303100;2022-08-19T06:23:49;95775.47;;;17.52;100.00
7824;BME280;3957;48.61947800;9.05303100;2022-08-19T06:25:13;95773.88;;;17.56;100.00
7824;BME280;3957;48.61947800;9.05303100;2022-08-19T06:26:36;95774.41;;;17.53;100.00
7824;BME280;3957;48.61947800;9.05303100;2022-08-19T06:27:57;95768.47;;;17.56;100.00
7824;BME280;3957;48.61947800;9.05303100;2022-08-19T06:29:20;95779.22;;;17.46;100.00
7824;BME280;3957;48.61947800;9.05303100;2022-08-19T06:30:41;95776.78;;;17.49;100.00
7824;BME280;3957;48.61947800;9.05303100;2022-08-19T06:32:03;95774.94;;;17.55;100.00
7824;BME280;3957;48.61947800;9.05303100;2022-08-19T06:33:23;95773.81;;;17.46;100.00